createdAt,value
2022-11-28T00:02:21.217Z,0.50
2022-11-28T00:07:23.370Z,1.50
2022-11-28T00:12:26.299Z,1.75
2022-11-28T00:17:28.181Z,1.00
2022-11-28T00:22:30.065Z,2.00
2022-11-28T00:27:34.596Z,1.00
2022-11-28T00:32:37.032Z,2.25
2022-11-28T00:37:38.952Z,1.75
2022-11-28T00:42:40.855Z,1.00
2022-11-28T00:47:42.787Z,1.00
2022-11-28T00:52:44.750Z,2.00
2022-11-28T00:57:46.768Z,1.00
2022-11-28T01:02:48.864Z,2.00
2022-11-28T01:07:51.411Z,2.00
2022-11-28T01:12:53.295Z,2.00
2022-11-28T01:17:55.211Z,2.50
2022-11-28T01:22:57.127Z,1.00
2022-11-28T01:27:59.035Z,2.75
2022-11-28T01:33:00.937Z,0.50
2022-11-28T01:38:02.830Z,1.00
2022-11-28T01:43:04.730Z,2.00
2022-11-28T01:48:09.505Z,4.25
2022-11-28T01:53:12.516Z,3.00
2022-11-28T01:58:14.962Z,1.25
2022-11-28T02:03:29.916Z,1.00
2022-11-28T02:08:34.983Z,1.00
2022-11-28T02:13:55.484Z,1.00
2022-11-28T02:19:27.939Z,1.00
2022-11-28T02:24:45.083Z,1.00
2022-11-28T02:30:12.876Z,1.00
2022-11-28T02:35:14.774Z,0.75
2022-11-28T02:40:25.195Z,0.50
2022-11-28T02:45:58.835Z,1.50
2022-11-28T02:51:16.960Z,1.00
2022-11-28T02:56:19.053Z,1.00
2022-11-28T03:01:34.397Z,0.00
2022-11-28T03:06:58.406Z,2.50
2022-11-28T03:12:14.410Z,1.00
2022-11-28T03:17:52.276Z,1.00
2022-11-28T03:23:30.460Z,2.00
2022-11-28T03:28:40.682Z,1.00
2022-11-28T03:33:51.875Z,1.00
2022-11-28T03:39:08.510Z,1.00
2022-11-28T03:44:20.433Z,0.25
2022-11-28T03:49:46.222Z,2.00
2022-11-28T03:54:57.106Z,1.00
2022-11-28T04:00:04.164Z,1.00
2022-11-28T04:05:24.953Z,0.00
2022-11-28T04:10:51.056Z,1.00
2022-11-28T04:16:37.288Z,1.00
2022-11-28T04:22:04.087Z,1.00
2022-11-28T04:27:10.649Z,1.00
2022-11-28T04:32:15.264Z,2.00
2022-11-28T04:37:19.852Z,1.00
2022-11-28T04:42:26.463Z,1.00
2022-11-28T04:47:29.243Z,1.00
2022-11-28T04:52:41.757Z,1.00
2022-11-28T04:57:51.695Z,1.00
2022-11-28T05:02:56.908Z,2.00
2022-11-28T05:08:02.145Z,0.75
2022-11-28T05:13:04.575Z,2.00
2022-11-28T05:18:06.984Z,1.00
2022-11-28T05:23:09.318Z,7.25
2022-11-28T05:28:11.314Z,0.00
2022-11-28T05:33:17.644Z,0.00
2022-11-28T05:38:19.872Z,0.50
2022-11-28T05:43:21.945Z,0.00
2022-11-28T05:48:24.444Z,0.00
2022-11-28T05:53:26.652Z,0.00
2022-11-28T05:58:28.620Z,0.00
2022-11-28T06:03:30.570Z,3.00
2022-11-28T06:08:32.540Z,2.00
2022-11-28T06:13:34.530Z,1.00
2022-11-28T06:18:36.998Z,0.00
2022-11-28T06:23:40.800Z,0.00
2022-11-28T06:28:43.473Z,0.00
2022-11-28T06:33:46.004Z,0.00
2022-11-28T06:38:48.807Z,0.00
2022-11-28T06:43:50.964Z,0.00
2022-11-28T06:48:53.647Z,0.00
2022-11-28T06:53:55.757Z,9.00
2022-11-28T06:58:59.669Z,1.00
2022-11-28T07:04:02.176Z,0.75
2022-11-28T07:09:04.506Z,0.00
2022-11-28T07:14:06.531Z,0.00
2022-11-28T07:19:08.561Z,0.75
2022-11-28T07:24:10.454Z,0.00
2022-11-28T07:29:17.469Z,0.00
2022-11-28T07:34:19.398Z,1.00
2022-11-28T07:39:21.419Z,1.00
2022-11-28T07:44:23.307Z,1.00
2022-11-28T07:49:25.187Z,1.00
2022-11-28T07:54:27.120Z,1.00
2022-11-28T07:59:29.046Z,1.50
2022-11-28T08:04:31.074Z,0.50
2022-11-28T08:09:33.323Z,0.00
2022-11-28T08:14:35.279Z,0.00
2022-11-28T08:19:37.417Z,1.00
2022-11-28T08:24:39.365Z,0.00
2022-11-28T08:29:41.562Z,0.00
2022-11-28T08:34:43.654Z,1.00
2022-11-28T08:39:45.675Z,1.00
2022-11-28T08:44:47.664Z,0.25
2022-11-28T08:49:49.654Z,0.00
2022-11-28T08:54:51.868Z,1.00
2022-11-28T08:59:53.786Z,0.00
2022-11-28T09:04:55.709Z,0.00
2022-11-28T09:09:57.690Z,0.00
2022-11-28T09:14:59.613Z,1.00
2022-11-28T09:20:01.702Z,0.00
2022-11-28T09:25:04.076Z,0.00
2022-11-28T09:30:08.294Z,0.00
2022-11-28T09:35:10.369Z,1.25
2022-11-28T09:40:17.542Z,1.00
2022-11-28T09:45:23.339Z,3.00
2022-11-28T09:50:30.651Z,0.00
2022-11-28T09:56:02.224Z,0.00
2022-11-28T10:01:22.908Z,2.00
2022-11-28T10:06:45.280Z,3.00
2022-11-28T10:12:03.983Z,1.00
2022-11-28T10:17:21.116Z,1.00
2022-11-28T10:22:44.637Z,1.00
2022-11-28T10:27:47.962Z,2.00
2022-11-28T10:33:12.302Z,0.50
2022-11-28T10:38:16.811Z,2.50
2022-11-28T10:43:54.284Z,5.50
2022-11-28T10:49:01.394Z,5.25
2022-11-28T10:54:39.338Z,7.00
2022-11-28T11:00:03.339Z,5.00
2022-11-28T11:05:08.002Z,4.00
2022-11-28T11:10:17.305Z,3.00
2022-11-28T11:15:30.090Z,11.25
2022-11-28T11:20:39.647Z,6.00
2022-11-28T11:25:58.319Z,4.75
2022-11-28T11:31:07.083Z,2.00
2022-11-28T11:36:33.263Z,3.00
2022-11-28T11:41:35.279Z,2.00
2022-11-28T11:47:03.553Z,4.00
2022-11-28T11:52:21.107Z,4.00
2022-11-28T11:57:33.954Z,3.75
2022-11-28T12:02:38.562Z,2.50
2022-11-28T12:07:55.253Z,4.00
2022-11-28T12:12:57.403Z,6.00
2022-11-28T12:18:07.042Z,7.50
2022-11-28T12:23:46.562Z,3.75
2022-11-28T12:29:22.711Z,5.25
2022-11-28T12:34:30.570Z,6.50
2022-11-28T12:39:53.877Z,4.00
2022-11-28T12:45:15.996Z,3.00
2022-11-28T12:50:36.887Z,3.00
2022-11-28T12:56:07.888Z,2.00
2022-11-28T13:01:39.319Z,2.00
2022-11-28T13:06:48.790Z,1.75
2022-11-28T13:12:11.994Z,2.00
2022-11-28T13:17:42.828Z,2.00
2022-11-28T13:22:53.485Z,3.00
2022-11-28T13:28:04.236Z,2.00
2022-11-28T13:33:33.201Z,2.00
2022-11-28T13:39:11.364Z,2.00
2022-11-28T13:44:19.485Z,2.00
2022-11-28T13:49:27.499Z,2.00
2022-11-28T13:54:32.512Z,3.00
2022-11-28T13:59:35.766Z,3.00
2022-11-28T14:04:44.455Z,3.00
2022-11-28T14:10:16.905Z,2.25
2022-11-28T14:15:32.143Z,1.75
2022-11-28T14:20:51.764Z,1.00
2022-11-28T14:25:54.997Z,0.75
2022-11-28T14:31:26.183Z,1.00
2022-11-28T14:36:31.534Z,2.00
2022-11-28T14:42:05.348Z,1.00
2022-11-28T14:47:16.280Z,1.25
2022-11-28T14:52:40.910Z,1.75
2022-11-28T14:57:44.545Z,1.00
2022-11-28T15:02:52.760Z,0.00
2022-11-28T15:08:02.802Z,1.00
2022-11-28T15:13:35.078Z,3.00
2022-11-28T15:18:41.896Z,2.50
2022-11-28T15:23:44.693Z,3.00
2022-11-28T15:28:47.046Z,3.00
2022-11-28T15:33:50.521Z,6.00
2022-11-28T15:38:54.603Z,4.25
2022-11-28T15:43:57.706Z,4.50
2022-11-28T15:49:01.564Z,4.50
2022-11-28T15:54:30.134Z,7.00
2022-11-28T15:59:32.623Z,11.00
2022-11-28T16:04:34.923Z,11.25
2022-11-28T16:09:38.597Z,10.75
2022-11-28T16:14:44.934Z,8.00
2022-11-28T16:19:51.407Z,7.75
2022-11-28T16:25:00.129Z,3.50
2022-11-28T16:30:26.621Z,2.00
2022-11-28T16:35:39.026Z,2.00
2022-11-28T16:40:41.973Z,1.00
2022-11-28T16:45:44.049Z,1.00
2022-11-28T16:51:15.422Z,1.00
2022-11-28T16:56:29.344Z,1.00
2022-11-28T17:01:31.550Z,1.00
2022-11-28T17:06:37.746Z,0.00
2022-11-28T17:11:47.456Z,2.00
2022-11-28T17:16:49.490Z,1.00
2022-11-28T17:21:54.839Z,1.00
2022-11-28T17:26:56.838Z,1.00
2022-11-28T17:31:59.505Z,2.00
2022-11-28T17:37:02.961Z,3.00
2022-11-28T17:42:06.112Z,2.50
2022-11-28T17:47:08.117Z,6.00
2022-11-28T17:52:10.085Z,6.50
2022-11-28T17:57:12.146Z,5.00
2022-11-28T18:02:14.289Z,2.00
2022-11-28T18:07:16.308Z,20.75
2022-11-28T18:12:18.271Z,2.50
2022-11-28T18:17:20.325Z,1.00
2022-11-28T18:22:22.800Z,1.00
2022-11-28T18:27:24.917Z,2.00
2022-11-28T18:32:26.928Z,3.00
2022-11-28T18:37:30.268Z,4.00
2022-11-28T18:42:32.564Z,2.25
2022-11-28T18:47:35.781Z,3.00
2022-11-28T18:52:38.391Z,2.00
2022-11-28T18:57:41.426Z,3.00
2022-11-28T19:02:43.447Z,2.00
2022-11-28T19:07:45.680Z,3.50
2022-11-28T19:12:47.859Z,3.00
2022-11-28T19:17:49.815Z,3.00
2022-11-28T19:22:52.524Z,3.25
2022-11-28T19:27:54.793Z,3.00
2022-11-28T19:32:58.492Z,2.50
2022-11-28T19:38:00.555Z,3.00
2022-11-28T19:43:04.860Z,3.25
2022-11-28T19:48:07.672Z,2.00
2022-11-28T19:53:09.700Z,4.00
2022-11-28T19:58:12.370Z,0.00
2022-11-28T20:03:15.736Z,1.75
2022-11-28T20:08:17.772Z,2.75
2022-11-28T20:13:20.034Z,3.00
2022-11-28T20:18:22.233Z,3.50
2022-11-28T20:23:24.246Z,12.00
2022-11-28T20:28:26.532Z,9.75
2022-11-28T20:33:29.540Z,13.25
2022-11-28T20:38:31.612Z,17.25
2022-11-28T20:43:36.699Z,18.75
2022-11-28T20:48:39.772Z,17.25
2022-11-28T20:53:41.792Z,19.25
2022-11-28T20:58:44.356Z,18.50
2022-11-28T21:03:47.071Z,15.00
2022-11-28T21:08:49.093Z,13.25
2022-11-28T21:13:51.040Z,13.25
2022-11-28T21:18:53.401Z,9.75
2022-11-28T21:24:04.283Z,7.75
2022-11-28T21:29:07.065Z,9.00
2022-11-28T21:34:14.322Z,8.50
2022-11-28T21:39:20.040Z,13.00
2022-11-28T21:44:22.286Z,13.25
2022-11-28T21:49:24.542Z,7.75
2022-11-28T21:54:28.680Z,12.00
2022-11-28T21:59:31.875Z,6.75
2022-11-28T22:04:34.842Z,7.00
2022-11-28T22:09:36.974Z,4.50
2022-11-28T22:14:39.159Z,4.00
2022-11-28T22:19:41.604Z,3.00
2022-11-28T22:24:44.082Z,5.00
2022-11-28T22:29:46.451Z,4.50
2022-11-28T22:34:48.515Z,4.00
2022-11-28T22:39:51.775Z,4.00
2022-11-28T22:44:54.362Z,2.75
2022-11-28T22:49:56.805Z,2.25
2022-11-28T22:54:58.799Z,3.25
2022-11-28T23:00:00.768Z,2.00
2022-11-28T23:05:03.228Z,1.75
2022-11-28T23:10:05.742Z,3.75
2022-11-28T23:15:10.216Z,1.00
2022-11-28T23:20:12.733Z,2.00
2022-11-28T23:25:15.439Z,2.00
2022-11-28T23:30:18.298Z,7.00
2022-11-28T23:35:20.242Z,1.50
2022-11-28T23:40:22.379Z,3.00
2022-11-28T23:45:24.460Z,3.75
2022-11-28T23:50:27.238Z,1.50
2022-11-28T23:55:29.179Z,1.00
